Portada
METAR-TAF:

METAR-TAF

Aeropuertos :

Aeropuerto de Malmö

Malmö, Suecia

latitud: 55-33N, longitud: 013-22E, altitud: 106 m

Observación

El informe se hizo hace 35 minutos, a las 15:20 UTC
Viento 10 kt del sur-sureste
Temperatura 26°C
Humedad 42%
Presión 1023 hPa
Visibilidad 10 km o más
sin nubes por debajo de 1500 m y sin presencia de cumulonimbus.

METAR: ESMS 061520Z 16010KT CAVOK 26/12 Q1023

Hora: 17:55 (15:55 UTC)

Pronóstico

El informe se hizo hace 4 horas y 50 minutos, a las 11:05 UTC
Pronóstico válido del 06 a las 12 UTC al 07 a las 12 UTC
Viento 8 kt del sureste
Visibilidad 10 km o más
sin nubes por debajo de 1500 m y sin presencia de cumulonimbus.

TAF: ESMS 061105Z 0612/0712 14008KT CAVOK

Observaciones y pronósticos meteorológicos de más de 4000 aeropuertos (mensajes METAR y TAF).

Los puntos amarillos y rojos representan las estaciones disponibles.

Ponga el ratón en el punto deseado para ver el nombre de la estación.

Haga clic para ver las observaciones y los pronósticos meteorológicos.

Para cambiar el mapa : haga clic en los botones verdes con una cruz de color negro para hacer un zoom, en el botón verde con un guión para alejar o en las flechas verdes para mapas adyacentes.


METAR-TAF: